sensor_id;sensor_type;location;lat;lon;timestamp;P1;durP1;ratioP1;P2;durP2;ratioP2
68225;SDS011;55045;49.410;11.030;2023-09-07T00:02:42;8.73;;;6.22;;
68225;SDS011;55045;49.410;11.030;2023-09-07T00:05:45;6.10;;;5.50;;
68225;SDS011;55045;49.410;11.030;2023-09-07T00:08:50;7.65;;;6.78;;
68225;SDS011;55045;49.410;11.030;2023-09-07T00:11:53;7.57;;;6.75;;
68225;SDS011;55045;49.410;11.030;2023-09-07T00:14:56;10.18;;;6.93;;
68225;SDS011;55045;49.410;11.030;2023-09-07T00:18:00;9.38;;;6.30;;
68225;SDS011;55045;49.410;11.030;2023-09-07T00:21:04;8.02;;;6.82;;
68225;SDS011;55045;49.410;11.030;2023-09-07T00:24:08;7.80;;;6.57;;
68225;SDS011;55045;49.410;11.030;2023-09-07T00:27:12;9.18;;;7.28;;
68225;SDS011;55045;49.410;11.030;2023-09-07T00:30:15;8.07;;;7.03;;
68225;SDS011;55045;49.410;11.030;2023-09-07T00:33:18;8.57;;;7.28;;
68225;SDS011;55045;49.410;11.030;2023-09-07T00:36:21;9.73;;;6.90;;
68225;SDS011;55045;49.410;11.030;2023-09-07T00:39:26;9.45;;;6.93;;
68225;SDS011;55045;49.410;11.030;2023-09-07T00:42:29;9.80;;;7.50;;
68225;SDS011;55045;49.410;11.030;2023-09-07T00:45:33;9.70;;;7.18;;
68225;SDS011;55045;49.410;11.030;2023-09-07T00:48:36;8.80;;;7.45;;
68225;SDS011;55045;49.410;11.030;2023-09-07T00:51:40;10.52;;;7.45;;
68225;SDS011;55045;49.410;11.030;2023-09-07T00:54:45;8.27;;;6.80;;
68225;SDS011;55045;49.410;11.030;2023-09-07T00:57:48;9.32;;;7.47;;
68225;SDS011;55045;49.410;11.030;2023-09-07T01:00:52;8.25;;;7.35;;
68225;SDS011;55045;49.410;11.030;2023-09-07T01:03:57;10.57;;;8.02;;
68225;SDS011;55045;49.410;11.030;2023-09-07T01:07:03;9.90;;;7.82;;
68225;SDS011;55045;49.410;11.030;2023-09-07T01:10:17;9.50;;;7.57;;
68225;SDS011;55045;49.410;11.030;2023-09-07T01:13:23;9.25;;;8.23;;
68225;SDS011;55045;49.410;11.030;2023-09-07T01:16:26;9.07;;;7.80;;
68225;SDS011;55045;49.410;11.030;2023-09-07T01:19:31;11.55;;;8.38;;
68225;SDS011;55045;49.410;11.030;2023-09-07T01:22:35;9.05;;;7.75;;
68225;SDS011;55045;49.410;11.030;2023-09-07T01:25:40;11.32;;;7.47;;
68225;SDS011;55045;49.410;11.030;2023-09-07T01:28:45;9.50;;;7.68;;
68225;SDS011;55045;49.410;11.030;2023-09-07T01:31:48;9.00;;;8.07;;
68225;SDS011;55045;49.410;11.030;2023-09-07T01:34:52;9.60;;;8.27;;
68225;SDS011;55045;49.410;11.030;2023-09-07T01:38:01;8.85;;;7.60;;
68225;SDS011;55045;49.410;11.030;2023-09-07T01:41:05;10.85;;;8.20;;
68225;SDS011;55045;49.410;11.030;2023-09-07T01:44:08;12.32;;;7.93;;
68225;SDS011;55045;49.410;11.030;2023-09-07T01:47:11;7.95;;;7.10;;
68225;SDS011;55045;49.410;11.030;2023-09-07T01:50:15;8.52;;;7.38;;
68225;SDS011;55045;49.410;11.030;2023-09-07T01:53:19;9.07;;;6.88;;
68225;SDS011;55045;49.410;11.030;2023-09-07T01:56:23;9.50;;;7.32;;
68225;SDS011;55045;49.410;11.030;2023-09-07T01:59:27;10.73;;;7.50;;
68225;SDS011;55045;49.410;11.030;2023-09-07T02:02:31;10.77;;;7.60;;
68225;SDS011;55045;49.410;11.030;2023-09-07T02:05:34;11.65;;;8.38;;
68225;SDS011;55045;49.410;11.030;2023-09-07T02:08:39;11.57;;;8.15;;
68225;SDS011;55045;49.410;11.030;2023-09-07T02:11:47;10.20;;;8.32;;
68225;SDS011;55045;49.410;11.030;2023-09-07T02:14:52;10.85;;;7.68;;
68225;SDS011;55045;49.410;11.030;2023-09-07T02:17:55;9.20;;;7.10;;
68225;SDS011;55045;49.410;11.030;2023-09-07T02:21:01;9.07;;;7.72;;
68225;SDS011;55045;49.410;11.030;2023-09-07T02:24:07;9.38;;;7.10;;
68225;SDS011;55045;49.410;11.030;2023-09-07T02:27:10;11.07;;;7.75;;
68225;SDS011;55045;49.410;11.030;2023-09-07T02:30:13;8.88;;;7.60;;
68225;SDS011;55045;49.410;11.030;2023-09-07T02:33:17;9.85;;;7.68;;
68225;SDS011;55045;49.410;11.030;2023-09-07T02:36:20;10.65;;;7.68;;
68225;SDS011;55045;49.410;11.030;2023-09-07T02:39:25;9.07;;;7.97;;
68225;SDS011;55045;49.410;11.030;2023-09-07T02:42:28;10.10;;;8.20;;
68225;SDS011;55045;49.410;11.030;2023-09-07T02:45:31;9.20;;;7.90;;
68225;SDS011;55045;49.410;11.030;2023-09-07T02:48:35;11.10;;;7.95;;
68225;SDS011;55045;49.410;11.030;2023-09-07T02:51:38;11.77;;;8.55;;
68225;SDS011;55045;49.410;11.030;2023-09-07T02:54:43;9.50;;;7.88;;
68225;SDS011;55045;49.410;11.030;2023-09-07T02:57:46;12.52;;;9.30;;
68225;SDS011;55045;49.410;11.030;2023-09-07T03:00:50;10.10;;;8.15;;
68225;SDS011;55045;49.410;11.030;2023-09-07T03:03:55;11.70;;;8.80;;
68225;SDS011;55045;49.410;11.030;2023-09-07T03:07:00;11.13;;;8.48;;
68225;SDS011;55045;49.410;11.030;2023-09-07T03:10:05;10.68;;;8.75;;
68225;SDS011;55045;49.410;11.030;2023-09-07T03:13:08;18.77;;;9.52;;
68225;SDS011;55045;49.410;11.030;2023-09-07T03:16:12;10.63;;;8.38;;
68225;SDS011;55045;49.410;11.030;2023-09-07T03:19:16;9.63;;;8.20;;
68225;SDS011;55045;49.410;11.030;2023-09-07T03:22:19;10.45;;;9.13;;
68225;SDS011;55045;49.410;11.030;2023-09-07T03:25:24;11.43;;;9.20;;
68225;SDS011;55045;49.410;11.030;2023-09-07T03:28:28;12.98;;;9.52;;
68225;SDS011;55045;49.410;11.030;2023-09-07T03:34:23;10.63;;;9.02;;
68225;SDS011;55045;49.410;11.030;2023-09-07T03:37:27;11.55;;;8.50;;
68225;SDS011;55045;49.410;11.030;2023-09-07T03:40:31;9.20;;;8.20;;
68225;SDS011;55045;49.410;11.030;2023-09-07T03:43:34;9.65;;;8.65;;
68225;SDS011;55045;49.410;11.030;2023-09-07T03:46:37;9.57;;;8.07;;
68225;SDS011;55045;49.410;11.030;2023-09-07T03:49:43;9.63;;;8.63;;
68225;SDS011;55045;49.410;11.030;2023-09-07T03:52:47;11.75;;;8.88;;
68225;SDS011;55045;49.410;11.030;2023-09-07T03:55:50;11.23;;;8.38;;
68225;SDS011;55045;49.410;11.030;2023-09-07T03:58:55;9.73;;;8.73;;
68225;SDS011;55045;49.410;11.030;2023-09-07T04:01:58;9.20;;;8.20;;
68225;SDS011;55045;49.410;11.030;2023-09-07T04:05:03;10.15;;;8.52;;
68225;SDS011;55045;49.410;11.030;2023-09-07T04:08:07;10.43;;;8.43;;
68225;SDS011;55045;49.410;11.030;2023-09-07T04:11:11;11.63;;;8.20;;
68225;SDS011;55045;49.410;11.030;2023-09-07T04:14:15;10.50;;;8.57;;
68225;SDS011;55045;49.410;11.030;2023-09-07T04:17:18;10.50;;;8.98;;
68225;SDS011;55045;49.410;11.030;2023-09-07T04:20:24;12.38;;;9.65;;
68225;SDS011;55045;49.410;11.030;2023-09-07T04:23:29;10.05;;;9.02;;
68225;SDS011;55045;49.410;11.030;2023-09-07T04:26:32;13.02;;;9.75;;
68225;SDS011;55045;49.410;11.030;2023-09-07T04:29:36;12.48;;;8.90;;
68225;SDS011;55045;49.410;11.030;2023-09-07T04:32:39;10.55;;;9.02;;
68225;SDS011;55045;49.410;11.030;2023-09-07T04:35:44;9.25;;;8.35;;
68225;SDS011;55045;49.410;11.030;2023-09-07T04:38:48;10.93;;;8.75;;
68225;SDS011;55045;49.410;11.030;2023-09-07T04:41:51;10.85;;;8.80;;
68225;SDS011;55045;49.410;11.030;2023-09-07T04:44:55;10.55;;;9.35;;
68225;SDS011;55045;49.410;11.030;2023-09-07T04:47:59;10.82;;;8.48;;
68225;SDS011;55045;49.410;11.030;2023-09-07T04:51:05;12.20;;;8.55;;
68225;SDS011;55045;49.410;11.030;2023-09-07T04:54:09;10.55;;;9.27;;
68225;SDS011;55045;49.410;11.030;2023-09-07T04:57:13;10.63;;;9.05;;
68225;SDS011;55045;49.410;11.030;2023-09-07T05:00:19;11.38;;;9.23;;
68225;SDS011;55045;49.410;11.030;2023-09-07T05:03:22;11.45;;;8.93;;
68225;SDS011;55045;49.410;11.030;2023-09-07T05:06:27;10.60;;;8.85;;
68225;SDS011;55045;49.410;11.030;2023-09-07T05:09:31;9.75;;;8.52;;
68225;SDS011;55045;49.410;11.030;2023-09-07T05:12:35;9.18;;;8.15;;
68225;SDS011;55045;49.410;11.030;2023-09-07T05:15:46;9.52;;;8.52;;
68225;SDS011;55045;49.410;11.030;2023-09-07T05:18:51;18.00;;;8.70;;
68225;SDS011;55045;49.410;11.030;2023-09-07T05:21:55;15.30;;;9.13;;
68225;SDS011;55045;49.410;11.030;2023-09-07T05:24:59;8.73;;;7.65;;
68225;SDS011;55045;49.410;11.030;2023-09-07T05:28:04;10.73;;;9.43;;
68225;SDS011;55045;49.410;11.030;2023-09-07T05:31:08;13.25;;;9.57;;
68225;SDS011;55045;49.410;11.030;2023-09-07T05:34:11;10.73;;;8.85;;
68225;SDS011;55045;49.410;11.030;2023-09-07T05:37:16;12.85;;;7.85;;
68225;SDS011;55045;49.410;11.030;2023-09-07T05:40:19;9.52;;;8.25;;
68225;SDS011;55045;49.410;11.030;2023-09-07T05:43:24;12.20;;;8.05;;
68225;SDS011;55045;49.410;11.030;2023-09-07T05:46:27;12.82;;;9.48;;
68225;SDS011;55045;49.410;11.030;2023-09-07T05:49:31;8.23;;;7.43;;
68225;SDS011;55045;49.410;11.030;2023-09-07T05:52:36;12.95;;;8.45;;
68225;SDS011;55045;49.410;11.030;2023-09-07T05:55:39;9.60;;;8.02;;
68225;SDS011;55045;49.410;11.030;2023-09-07T05:58:43;11.20;;;9.85;;
68225;SDS011;55045;49.410;11.030;2023-09-07T06:01:47;11.60;;;8.75;;
68225;SDS011;55045;49.410;11.030;2023-09-07T06:04:50;11.57;;;7.93;;
68225;SDS011;55045;49.410;11.030;2023-09-07T06:07:56;9.60;;;8.18;;
68225;SDS011;55045;49.410;11.030;2023-09-07T06:10:59;10.68;;;9.18;;
68225;SDS011;55045;49.410;11.030;2023-09-07T06:14:02;9.48;;;7.82;;
68225;SDS011;55045;49.410;11.030;2023-09-07T06:17:06;11.93;;;9.00;;
68225;SDS011;55045;49.410;11.030;2023-09-07T06:20:11;11.90;;;8.93;;
68225;SDS011;55045;49.410;11.030;2023-09-07T06:23:17;11.70;;;8.85;;
68225;SDS011;55045;49.410;11.030;2023-09-07T06:26:20;10.32;;;9.10;;
68225;SDS011;55045;49.410;11.030;2023-09-07T06:29:23;15.40;;;7.88;;
68225;SDS011;55045;49.410;11.030;2023-09-07T06:32:27;11.63;;;8.60;;
68225;SDS011;55045;49.410;11.030;2023-09-07T06:35:30;10.82;;;9.30;;
68225;SDS011;55045;49.410;11.030;2023-09-07T06:38:35;12.27;;;9.30;;
68225;SDS011;55045;49.410;11.030;2023-09-07T06:41:39;12.45;;;9.07;;
68225;SDS011;55045;49.410;11.030;2023-09-07T06:44:42;14.27;;;9.13;;
68225;SDS011;55045;49.410;11.030;2023-09-07T06:47:48;14.57;;;10.23;;
68225;SDS011;55045;49.410;11.030;2023-09-07T06:50:55;12.85;;;9.27;;
68225;SDS011;55045;49.410;11.030;2023-09-07T06:54:06;12.32;;;9.50;;
68225;SDS011;55045;49.410;11.030;2023-09-07T06:57:10;13.75;;;8.40;;
68225;SDS011;55045;49.410;11.030;2023-09-07T07:00:13;12.82;;;9.02;;
68225;SDS011;55045;49.410;11.030;2023-09-07T07:03:17;11.52;;;9.65;;
68225;SDS011;55045;49.410;11.030;2023-09-07T07:06:21;14.85;;;9.70;;
68225;SDS011;55045;49.410;11.030;2023-09-07T07:09:26;11.18;;;8.98;;
68225;SDS011;55045;49.410;11.030;2023-09-07T07:12:32;12.38;;;9.50;;
68225;SDS011;55045;49.410;11.030;2023-09-07T07:15:37;11.57;;;8.30;;
68225;SDS011;55045;49.410;11.030;2023-09-07T07:18:41;10.68;;;8.15;;
68225;SDS011;55045;49.410;11.030;2023-09-07T07:21:46;10.00;;;7.18;;
68225;SDS011;55045;49.410;11.030;2023-09-07T07:24:51;14.13;;;8.57;;
68225;SDS011;55045;49.410;11.030;2023-09-07T07:27:55;11.68;;;8.75;;
68225;SDS011;55045;49.410;11.030;2023-09-07T07:30:59;12.27;;;8.50;;
68225;SDS011;55045;49.410;11.030;2023-09-07T07:34:10;10.77;;;8.25;;
68225;SDS011;55045;49.410;11.030;2023-09-07T07:37:14;12.15;;;8.38;;
68225;SDS011;55045;49.410;11.030;2023-09-07T07:40:19;16.10;;;8.45;;
68225;SDS011;55045;49.410;11.030;2023-09-07T07:43:22;13.60;;;7.90;;
68225;SDS011;55045;49.410;11.030;2023-09-07T07:46:26;12.55;;;7.95;;
68225;SDS011;55045;49.410;11.030;2023-09-07T07:49:30;14.70;;;6.70;;
68225;SDS011;55045;49.410;11.030;2023-09-07T07:52:34;10.32;;;7.30;;
68225;SDS011;55045;49.410;11.030;2023-09-07T07:55:40;10.85;;;7.75;;
68225;SDS011;55045;49.410;11.030;2023-09-07T07:58:47;10.63;;;6.80;;
68225;SDS011;55045;49.410;11.030;2023-09-07T08:01:51;11.07;;;6.90;;
68225;SDS011;55045;49.410;11.030;2023-09-07T08:04:55;7.28;;;6.03;;
68225;SDS011;55045;49.410;11.030;2023-09-07T08:08:01;7.50;;;6.35;;
68225;SDS011;55045;49.410;11.030;2023-09-07T08:11:06;8.00;;;6.32;;
68225;SDS011;55045;49.410;11.030;2023-09-07T08:14:12;8.60;;;6.55;;
68225;SDS011;55045;49.410;11.030;2023-09-07T08:17:16;10.18;;;6.13;;
68225;SDS011;55045;49.410;11.030;2023-09-07T08:20:20;10.57;;;6.63;;
68225;SDS011;55045;49.410;11.030;2023-09-07T08:23:24;8.13;;;6.15;;
68225;SDS011;55045;49.410;11.030;2023-09-07T08:26:29;10.50;;;6.90;;
68225;SDS011;55045;49.410;11.030;2023-09-07T08:29:32;12.23;;;6.72;;
68225;SDS011;55045;49.410;11.030;2023-09-07T08:32:35;6.93;;;5.68;;
68225;SDS011;55045;49.410;11.030;2023-09-07T08:35:40;8.18;;;5.57;;
68225;SDS011;55045;49.410;11.030;2023-09-07T08:38:46;6.88;;;5.47;;
68225;SDS011;55045;49.410;11.030;2023-09-07T08:41:51;7.72;;;5.50;;
68225;SDS011;55045;49.410;11.030;2023-09-07T08:45:03;7.10;;;5.93;;
68225;SDS011;55045;49.410;11.030;2023-09-07T08:48:09;9.05;;;5.20;;
68225;SDS011;55045;49.410;11.030;2023-09-07T08:51:14;10.52;;;5.65;;
68225;SDS011;55045;49.410;11.030;2023-09-07T08:54:18;10.25;;;6.22;;
68225;SDS011;55045;49.410;11.030;2023-09-07T08:57:24;8.95;;;4.93;;
68225;SDS011;55045;49.410;11.030;2023-09-07T09:00:29;4.85;;;4.25;;
68225;SDS011;55045;49.410;11.030;2023-09-07T09:03:33;5.95;;;3.90;;
68225;SDS011;55045;49.410;11.030;2023-09-07T09:06:36;7.07;;;4.18;;
68225;SDS011;55045;49.410;11.030;2023-09-07T09:09:40;6.30;;;4.72;;
68225;SDS011;55045;49.410;11.030;2023-09-07T09:12:48;7.18;;;4.60;;
68225;SDS011;55045;49.410;11.030;2023-09-07T09:15:51;4.75;;;4.15;;
68225;SDS011;55045;49.410;11.030;2023-09-07T09:18:55;3.97;;;3.40;;
68225;SDS011;55045;49.410;11.030;2023-09-07T09:22:00;5.60;;;3.90;;
68225;SDS011;55045;49.410;11.030;2023-09-07T09:25:05;6.28;;;4.22;;
68225;SDS011;55045;49.410;11.030;2023-09-07T09:28:12;4.60;;;4.10;;
68225;SDS011;55045;49.410;11.030;2023-09-07T09:34:23;4.43;;;3.53;;
68225;SDS011;55045;49.410;11.030;2023-09-07T09:37:27;4.25;;;3.85;;
68225;SDS011;55045;49.410;11.030;2023-09-07T09:40:30;5.68;;;3.90;;
68225;SDS011;55045;49.410;11.030;2023-09-07T09:43:33;6.85;;;3.58;;
68225;SDS011;55045;49.410;11.030;2023-09-07T09:46:37;4.07;;;3.75;;
68225;SDS011;55045;49.410;11.030;2023-09-07T09:49:43;4.53;;;4.13;;
68225;SDS011;55045;49.410;11.030;2023-09-07T09:52:48;6.15;;;4.63;;
68225;SDS011;55045;49.410;11.030;2023-09-07T09:55:51;4.70;;;4.25;;
68225;SDS011;55045;49.410;11.030;2023-09-07T09:58:55;5.00;;;4.07;;
68225;SDS011;55045;49.410;11.030;2023-09-07T10:01:58;4.28;;;3.88;;
68225;SDS011;55045;49.410;11.030;2023-09-07T10:05:05;6.05;;;3.70;;
68225;SDS011;55045;49.410;11.030;2023-09-07T10:08:12;4.68;;;3.80;;
68225;SDS011;55045;49.410;11.030;2023-09-07T10:11:17;6.43;;;4.10;;
68225;SDS011;55045;49.410;11.030;2023-09-07T10:14:37;4.18;;;3.78;;
68225;SDS011;55045;49.410;11.030;2023-09-07T10:17:41;4.22;;;3.83;;
68225;SDS011;55045;49.410;11.030;2023-09-07T10:20:53;5.05;;;3.80;;
68225;SDS011;55045;49.410;11.030;2023-09-07T10:23:57;4.25;;;3.88;;
68225;SDS011;55045;49.410;11.030;2023-09-07T10:27:01;7.45;;;3.80;;
68225;SDS011;55045;49.410;11.030;2023-09-07T10:30:09;4.20;;;3.75;;
68225;SDS011;55045;49.410;11.030;2023-09-07T10:33:20;4.40;;;4.00;;
68225;SDS011;55045;49.410;11.030;2023-09-07T10:36:25;4.18;;;3.78;;
68225;SDS011;55045;49.410;11.030;2023-09-07T10:39:30;7.75;;;4.63;;
68225;SDS011;55045;49.410;11.030;2023-09-07T10:42:34;4.78;;;4.25;;
68225;SDS011;55045;49.410;11.030;2023-09-07T10:45:38;4.60;;;4.15;;
68225;SDS011;55045;49.410;11.030;2023-09-07T10:48:42;5.95;;;4.18;;
68225;SDS011;55045;49.410;11.030;2023-09-07T10:51:47;4.50;;;4.10;;
68225;SDS011;55045;49.410;11.030;2023-09-07T10:54:55;5.07;;;4.15;;
68225;SDS011;55045;49.410;11.030;2023-09-07T10:57:59;4.90;;;4.18;;
68225;SDS011;55045;49.410;11.030;2023-09-07T11:01:03;5.10;;;4.68;;
68225;SDS011;55045;49.410;11.030;2023-09-07T11:04:07;4.82;;;4.40;;
68225;SDS011;55045;49.410;11.030;2023-09-07T11:07:14;5.30;;;4.20;;
68225;SDS011;55045;49.410;11.030;2023-09-07T11:10:19;4.80;;;3.85;;
68225;SDS011;55045;49.410;11.030;2023-09-07T11:13:22;4.80;;;4.40;;
68225;SDS011;55045;49.410;11.030;2023-09-07T11:16:28;5.78;;;4.30;;
68225;SDS011;55045;49.410;11.030;2023-09-07T11:19:32;8.18;;;4.20;;
68225;SDS011;55045;49.410;11.030;2023-09-07T11:22:40;8.73;;;4.43;;
68225;SDS011;55045;49.410;11.030;2023-09-07T11:26:03;6.78;;;4.28;;
68225;SDS011;55045;49.410;11.030;2023-09-07T11:29:07;4.40;;;3.80;;
68225;SDS011;55045;49.410;11.030;2023-09-07T11:32:10;5.18;;;4.22;;
68225;SDS011;55045;49.410;11.030;2023-09-07T11:35:15;7.25;;;3.97;;
68225;SDS011;55045;49.410;11.030;2023-09-07T11:38:19;5.45;;;4.57;;
68225;SDS011;55045;49.410;11.030;2023-09-07T11:41:24;4.25;;;3.85;;
68225;SDS011;55045;49.410;11.030;2023-09-07T11:44:27;6.57;;;3.80;;
68225;SDS011;55045;49.410;11.030;2023-09-07T11:47:30;4.45;;;4.05;;
68225;SDS011;55045;49.410;11.030;2023-09-07T11:50:33;4.72;;;4.20;;
68225;SDS011;55045;49.410;11.030;2023-09-07T11:53:38;5.53;;;3.85;;
68225;SDS011;55045;49.410;11.030;2023-09-07T11:56:47;4.80;;;4.03;;
68225;SDS011;55045;49.410;11.030;2023-09-07T11:59:50;4.55;;;4.10;;
68225;SDS011;55045;49.410;11.030;2023-09-07T12:03:00;5.32;;;4.25;;
68225;SDS011;55045;49.410;11.030;2023-09-07T12:06:03;6.57;;;4.28;;
68225;SDS011;55045;49.410;11.030;2023-09-07T12:09:08;5.20;;;4.03;;
68225;SDS011;55045;49.410;11.030;2023-09-07T12:12:12;5.43;;;4.72;;
68225;SDS011;55045;49.410;11.030;2023-09-07T12:15:16;9.43;;;3.97;;
68225;SDS011;55045;49.410;11.030;2023-09-07T12:18:19;6.35;;;3.83;;
68225;SDS011;55045;49.410;11.030;2023-09-07T12:21:23;6.53;;;3.97;;
68225;SDS011;55045;49.410;11.030;2023-09-07T12:24:28;5.15;;;4.20;;
68225;SDS011;55045;49.410;11.030;2023-09-07T12:27:31;5.50;;;4.13;;
68225;SDS011;55045;49.410;11.030;2023-09-07T12:30:53;4.18;;;3.78;;
68225;SDS011;55045;49.410;11.030;2023-09-07T12:33:57;4.63;;;4.15;;
68225;SDS011;55045;49.410;11.030;2023-09-07T12:37:01;4.95;;;3.95;;
68225;SDS011;55045;49.410;11.030;2023-09-07T12:40:07;7.47;;;3.95;;
68225;SDS011;55045;49.410;11.030;2023-09-07T12:43:14;5.60;;;4.40;;
68225;SDS011;55045;49.410;11.030;2023-09-07T12:46:18;7.13;;;4.28;;
68225;SDS011;55045;49.410;11.030;2023-09-07T12:49:21;5.07;;;4.07;;
68225;SDS011;55045;49.410;11.030;2023-09-07T12:52:24;4.53;;;3.80;;
68225;SDS011;55045;49.410;11.030;2023-09-07T12:55:29;4.65;;;4.25;;
68225;SDS011;55045;49.410;11.030;2023-09-07T12:58:33;4.82;;;4.28;;
68225;SDS011;55045;49.410;11.030;2023-09-07T13:01:36;4.82;;;4.10;;
68225;SDS011;55045;49.410;11.030;2023-09-07T13:04:40;5.07;;;4.18;;
68225;SDS011;55045;49.410;11.030;2023-09-07T13:07:43;5.63;;;4.38;;
68225;SDS011;55045;49.410;11.030;2023-09-07T13:10:48;4.55;;;4.15;;
68225;SDS011;55045;49.410;11.030;2023-09-07T13:13:52;6.57;;;4.00;;
68225;SDS011;55045;49.410;11.030;2023-09-07T13:16:55;7.03;;;3.97;;
68225;SDS011;55045;49.410;11.030;2023-09-07T13:19:58;4.35;;;3.95;;
68225;SDS011;55045;49.410;11.030;2023-09-07T13:23:02;7.90;;;4.30;;
68225;SDS011;55045;49.410;11.030;2023-09-07T13:26:07;7.88;;;4.22;;
68225;SDS011;55045;49.410;11.030;2023-09-07T13:29:10;8.13;;;4.35;;
68225;SDS011;55045;49.410;11.030;2023-09-07T13:32:13;5.00;;;4.18;;
68225;SDS011;55045;49.410;11.030;2023-09-07T13:35:17;5.85;;;4.10;;
68225;SDS011;55045;49.410;11.030;2023-09-07T13:38:20;4.72;;;4.28;;
68225;SDS011;55045;49.410;11.030;2023-09-07T13:41:27;6.13;;;4.10;;
68225;SDS011;55045;49.410;11.030;2023-09-07T13:44:30;5.60;;;4.13;;
68225;SDS011;55045;49.410;11.030;2023-09-07T13:47:33;6.35;;;4.38;;
68225;SDS011;55045;49.410;11.030;2023-09-07T13:50:37;4.60;;;4.20;;
68225;SDS011;55045;49.410;11.030;2023-09-07T13:53:40;4.30;;;3.90;;
68225;SDS011;55045;49.410;11.030;2023-09-07T13:56:48;4.70;;;4.15;;
68225;SDS011;55045;49.410;11.030;2023-09-07T13:59:52;4.95;;;3.80;;
68225;SDS011;55045;49.410;11.030;2023-09-07T14:02:55;4.90;;;4.38;;
68225;SDS011;55045;49.410;11.030;2023-09-07T14:05:59;5.28;;;3.75;;
68225;SDS011;55045;49.410;11.030;2023-09-07T14:09:02;6.88;;;4.20;;
68225;SDS011;55045;49.410;11.030;2023-09-07T14:12:07;5.18;;;3.97;;
68225;SDS011;55045;49.410;11.030;2023-09-07T14:15:10;5.97;;;3.85;;
68225;SDS011;55045;49.410;11.030;2023-09-07T14:18:14;4.97;;;4.30;;
68225;SDS011;55045;49.410;11.030;2023-09-07T14:21:17;5.00;;;4.05;;
68225;SDS011;55045;49.410;11.030;2023-09-07T14:24:20;4.35;;;3.97;;
68225;SDS011;55045;49.410;11.030;2023-09-07T14:27:25;5.20;;;3.58;;
68225;SDS011;55045;49.410;11.030;2023-09-07T14:30:28;4.43;;;3.70;;
68225;SDS011;55045;49.410;11.030;2023-09-07T14:33:32;3.67;;;3.13;;
68225;SDS011;55045;49.410;11.030;2023-09-07T14:36:35;4.43;;;3.92;;
68225;SDS011;55045;49.410;11.030;2023-09-07T14:39:39;4.25;;;3.85;;
68225;SDS011;55045;49.410;11.030;2023-09-07T14:42:50;5.78;;;3.80;;
68225;SDS011;55045;49.410;11.030;2023-09-07T14:45:55;5.33;;;4.33;;
68225;SDS011;55045;49.410;11.030;2023-09-07T14:48:59;4.22;;;3.70;;
68225;SDS011;55045;49.410;11.030;2023-09-07T14:52:03;3.78;;;3.38;;
68225;SDS011;55045;49.410;11.030;2023-09-07T14:55:07;7.40;;;3.90;;
68225;SDS011;55045;49.410;11.030;2023-09-07T14:58:12;4.00;;;3.60;;
68225;SDS011;55045;49.410;11.030;2023-09-07T15:01:15;5.85;;;3.90;;
68225;SDS011;55045;49.410;11.030;2023-09-07T15:04:19;5.97;;;4.00;;
68225;SDS011;55045;49.410;11.030;2023-09-07T15:07:22;5.38;;;4.05;;
68225;SDS011;55045;49.410;11.030;2023-09-07T15:10:26;4.70;;;3.70;;
68225;SDS011;55045;49.410;11.030;2023-09-07T15:13:31;6.28;;;3.67;;
68225;SDS011;55045;49.410;11.030;2023-09-07T15:16:34;5.43;;;4.15;;
68225;SDS011;55045;49.410;11.030;2023-09-07T15:19:37;6.00;;;4.10;;
68225;SDS011;55045;49.410;11.030;2023-09-07T15:22:42;4.35;;;3.95;;
68225;SDS011;55045;49.410;11.030;2023-09-07T15:25:46;5.68;;;4.07;;
68225;SDS011;55045;49.410;11.030;2023-09-07T15:28:50;4.43;;;3.92;;
68225;SDS011;55045;49.410;11.030;2023-09-07T15:34:23;4.97;;;4.00;;
68225;SDS011;55045;49.410;11.030;2023-09-07T15:37:27;5.50;;;3.92;;
68225;SDS011;55045;49.410;11.030;2023-09-07T15:40:30;5.32;;;3.80;;
68225;SDS011;55045;49.410;11.030;2023-09-07T15:43:33;5.82;;;4.30;;
68225;SDS011;55045;49.410;11.030;2023-09-07T15:46:37;4.32;;;3.92;;
68225;SDS011;55045;49.410;11.030;2023-09-07T15:49:46;5.32;;;3.80;;
68225;SDS011;55045;49.410;11.030;2023-09-07T15:52:57;6.72;;;4.07;;
68225;SDS011;55045;49.410;11.030;2023-09-07T15:56:00;5.10;;;3.95;;
68225;SDS011;55045;49.410;11.030;2023-09-07T15:59:05;4.70;;;4.20;;
68225;SDS011;55045;49.410;11.030;2023-09-07T16:02:09;4.55;;;4.15;;
68225;SDS011;55045;49.410;11.030;2023-09-07T16:05:14;6.60;;;3.92;;
68225;SDS011;55045;49.410;11.030;2023-09-07T16:08:17;4.72;;;3.90;;
68225;SDS011;55045;49.410;11.030;2023-09-07T16:11:21;4.30;;;3.90;;
68225;SDS011;55045;49.410;11.030;2023-09-07T16:14:24;7.32;;;4.30;;
68225;SDS011;55045;49.410;11.030;2023-09-07T16:17:27;5.35;;;3.78;;
68225;SDS011;55045;49.410;11.030;2023-09-07T16:20:32;7.47;;;3.90;;
68225;SDS011;55045;49.410;11.030;2023-09-07T16:23:35;4.93;;;4.10;;
68225;SDS011;55045;49.410;11.030;2023-09-07T16:26:39;5.43;;;3.83;;
68225;SDS011;55045;49.410;11.030;2023-09-07T16:29:42;5.07;;;4.15;;
68225;SDS011;55045;49.410;11.030;2023-09-07T16:32:46;6.30;;;4.22;;
68225;SDS011;55045;49.410;11.030;2023-09-07T16:35:51;5.55;;;4.20;;
68225;SDS011;55045;49.410;11.030;2023-09-07T16:38:54;5.00;;;3.78;;
68225;SDS011;55045;49.410;11.030;2023-09-07T16:41:58;5.68;;;4.22;;
68225;SDS011;55045;49.410;11.030;2023-09-07T16:45:01;6.68;;;3.97;;
68225;SDS011;55045;49.410;11.030;2023-09-07T16:48:05;7.50;;;4.05;;
68225;SDS011;55045;49.410;11.030;2023-09-07T16:51:10;4.88;;;3.85;;
68225;SDS011;55045;49.410;11.030;2023-09-07T16:54:13;4.57;;;3.42;;
68225;SDS011;55045;49.410;11.030;2023-09-07T16:57:17;6.18;;;4.25;;
68225;SDS011;55045;49.410;11.030;2023-09-07T17:00:20;4.88;;;3.78;;
68225;SDS011;55045;49.410;11.030;2023-09-07T17:03:23;4.32;;;3.83;;
68225;SDS011;55045;49.410;11.030;2023-09-07T17:06:28;6.55;;;3.75;;
68225;SDS011;55045;49.410;11.030;2023-09-07T17:09:32;5.18;;;3.67;;
68225;SDS011;55045;49.410;11.030;2023-09-07T17:12:35;5.55;;;3.50;;
68225;SDS011;55045;49.410;11.030;2023-09-07T17:15:38;4.80;;;4.30;;
68225;SDS011;55045;49.410;11.030;2023-09-07T17:18:42;5.53;;;3.63;;
68225;SDS011;55045;49.410;11.030;2023-09-07T17:21:46;4.18;;;3.67;;
68225;SDS011;55045;49.410;11.030;2023-09-07T17:24:50;5.00;;;4.13;;
68225;SDS011;55045;49.410;11.030;2023-09-07T17:27:53;6.28;;;3.85;;
68225;SDS011;55045;49.410;11.030;2023-09-07T17:30:56;12.50;;;4.78;;
68225;SDS011;55045;49.410;11.030;2023-09-07T17:33:59;8.05;;;3.90;;
68225;SDS011;55045;49.410;11.030;2023-09-07T17:37:05;6.63;;;4.22;;
68225;SDS011;55045;49.410;11.030;2023-09-07T17:40:08;4.70;;;4.20;;
68225;SDS011;55045;49.410;11.030;2023-09-07T17:43:12;5.50;;;3.75;;
68225;SDS011;55045;49.410;11.030;2023-09-07T17:46:15;4.70;;;4.03;;
68225;SDS011;55045;49.410;11.030;2023-09-07T17:49:19;7.07;;;3.90;;
68225;SDS011;55045;49.410;11.030;2023-09-07T17:52:23;8.20;;;4.20;;
68225;SDS011;55045;49.410;11.030;2023-09-07T17:55:26;6.35;;;4.13;;
68225;SDS011;55045;49.410;11.030;2023-09-07T17:58:29;4.30;;;3.88;;
68225;SDS011;55045;49.410;11.030;2023-09-07T18:01:33;6.00;;;4.10;;
68225;SDS011;55045;49.410;11.030;2023-09-07T18:04:37;6.05;;;4.40;;
68225;SDS011;55045;49.410;11.030;2023-09-07T18:07:41;7.75;;;4.55;;
68225;SDS011;55045;49.410;11.030;2023-09-07T18:10:45;6.38;;;3.92;;
68225;SDS011;55045;49.410;11.030;2023-09-07T18:13:48;7.95;;;4.22;;
68225;SDS011;55045;49.410;11.030;2023-09-07T18:17:04;5.82;;;4.53;;
68225;SDS011;55045;49.410;11.030;2023-09-07T18:20:08;5.40;;;3.95;;